Time;durP1;ratioP1;P1;durP2;ratioP2;P2;SDS_P1;SDS_P2;PMS_P1;PMS_P2;Temp;Humidity;BMP_temperature;BMP_pressure;BME280_temperature;BME280_humidity;BME280_pressure;Samples;Min_cycle;Max_cycle;Signal;HPM_P1;HPM_P2
2021/05/29 00:02:11;;;;;;;5.50;2.47;;;;;;;;;;5036837;28;20464;-58
2021/05/29 00:04:38;;;;;;;6.67;2.40;;;;;;;;;;5054460;28;20029;-58
2021/05/29 00:07:05;;;;;;;7.77;2.37;;;;;;;;;;5054513;28;20043;-57
2021/05/29 00:09:32;;;;;;;8.13;2.33;;;;;;;;;;5054618;28;20041;-58
2021/05/29 00:11:59;;;;;;;8.77;2.70;;;;;;;;;;5054459;28;20025;-58
2021/05/29 00:14:26;;;;;;;6.23;3.03;;;;;;;;;;5054319;28;20032;-58
2021/05/29 00:16:53;;;;;;;8.33;2.97;;;;;;;;;;5054822;28;20056;-58
2021/05/29 00:19:19;;;;;;;8.70;3.50;;;;;;;;;;5054340;28;20033;-58
2021/05/29 00:21:46;;;;;;;6.00;2.57;;;;;;;;;;5053946;28;20361;-58
2021/05/29 00:24:13;;;;;;;4.47;2.40;;;;;;;;;;5054202;28;20109;-58
2021/05/29 00:26:40;;;;;;;9.57;3.20;;;;;;;;;;5054054;28;20032;-58
2021/05/29 00:29:06;;;;;;;8.37;2.70;;;;;;;;;;5054103;28;20036;-58
2021/05/29 00:31:33;;;;;;;10.30;3.63;;;;;;;;;;5054204;28;20082;-58
2021/05/29 00:34:00;;;;;;;6.53;3.10;;;;;;;;;;5054059;28;20033;-58
2021/05/29 00:36:27;;;;;;;6.73;3.07;;;;;;;;;;5054128;28;20044;-58
2021/05/29 00:38:53;;;;;;;7.63;4.07;;;;;;;;;;5054050;28;20029;-58
2021/05/29 00:41:33;;;;;;;7.03;2.93;;;;;;;;;;5035982;28;20036;-58
2021/05/29 00:44:00;;;;;;;24.67;4.67;;;;;;;;;;5053902;28;20089;-58
2021/05/29 00:46:27;;;;;;;9.50;3.67;;;;;;;;;;5053841;28;20025;-58
2021/05/29 00:48:54;;;;;;;6.47;2.70;;;;;;;;;;5054225;28;20380;-58
2021/05/29 00:51:21;;;;;;;4.50;2.30;;;;;;;;;;5053827;28;20491;-58
2021/05/29 00:53:48;;;;;;;7.87;3.07;;;;;;;;;;5053765;28;20487;-58
2021/05/29 00:56:15;;;;;;;9.60;3.67;;;;;;;;;;5054031;28;20472;-58
2021/05/29 00:58:42;;;;;;;7.67;2.77;;;;;;;;;;5053830;28;20033;-58
2021/05/29 01:01:09;;;;;;;8.47;3.10;;;;;;;;;;5053998;28;20472;-58
2021/05/29 01:03:45;;;;;;;8.10;2.90;;;;;;;;;;5053380;28;20052;-58
2021/05/29 01:06:12;;;;;;;7.37;2.90;;;;;;;;;;5053388;28;20031;-58
2021/05/29 01:08:39;;;;;;;16.47;4.13;;;;;;;;;;5053675;28;20021;-58
2021/05/29 01:11:07;;;;;;;7.87;3.60;;;;;;;;;;5053341;28;20060;-58
2021/05/29 01:13:35;;;;;;;8.27;3.83;;;;;;;;;;5053512;28;20018;-58
2021/05/29 01:16:21;;;;;;;10.10;3.97;;;;;;;;;;5053635;28;20060;-58
2021/05/29 01:18:48;;;;;;;10.50;5.03;;;;;;;;;;5053480;28;20036;-57
2021/05/29 01:21:15;;;;;;;11.73;3.80;;;;;;;;;;5053364;28;20128;-58
2021/05/29 01:23:41;;;;;;;13.43;3.93;;;;;;;;;;5053165;28;20025;-58
2021/05/29 01:26:08;;;;;;;6.67;3.17;;;;;;;;;;5053119;28;20056;-58
2021/05/29 01:28:35;;;;;;;7.13;3.10;;;;;;;;;;5053011;28;20083;-58
2021/05/29 01:31:06;;;;;;;9.20;3.67;;;;;;;;;;5053344;28;20048;-57
2021/05/29 01:33:34;;;;;;;5.27;3.23;;;;;;;;;;5052917;28;20033;-58
2021/05/29 01:36:05;;;;;;;6.03;3.33;;;;;;;;;;5052741;28;20545;-58
2021/05/29 01:38:34;;;;;;;8.00;3.43;;;;;;;;;;5052937;28;20040;-57
2021/05/29 01:41:05;;;;;;;6.50;3.17;;;;;;;;;;5052890;28;20040;-58
2021/05/29 01:43:35;;;;;;;7.37;3.00;;;;;;;;;;5052802;28;20472;-57
2021/05/29 01:46:03;;;;;;;12.23;3.40;;;;;;;;;;5052857;28;20032;-58
2021/05/29 01:48:34;;;;;;;6.00;2.90;;;;;;;;;;5052697;28;20033;-58
2021/05/29 01:51:01;;;;;;;7.67;3.03;;;;;;;;;;5052715;28;20037;-58
2021/05/29 01:53:28;;;;;;;5.03;2.83;;;;;;;;;;5052973;28;20100;-57
2021/05/29 01:55:55;;;;;;;7.53;2.87;;;;;;;;;;5052556;28;20408;-58
2021/05/29 01:58:22;;;;;;;4.43;2.47;;;;;;;;;;5052052;28;20033;-57
2021/05/29 02:00:49;;;;;;;10.70;3.10;;;;;;;;;;5052635;28;20398;-57
2021/05/29 02:03:16;;;;;;;6.57;3.27;;;;;;;;;;5052677;28;20075;-59
2021/05/29 02:05:42;;;;;;;13.40;3.40;;;;;;;;;;5052423;28;20029;-57
2021/05/29 02:08:11;;;;;;;5.97;2.97;;;;;;;;;;5052685;28;20093;-57
2021/05/29 02:10:38;;;;;;;5.00;2.80;;;;;;;;;;5052545;28;20120;-58
2021/05/29 02:13:07;;;;;;;7.30;2.60;;;;;;;;;;5052661;28;20017;-58
2021/05/29 02:15:42;;;;;;;4.93;2.80;;;;;;;;;;5034584;28;20469;-57
2021/05/29 02:18:08;;;;;;;;;;;;;;;;;;5052889;28;20048;-58
2021/05/29 02:20:49;;;;;;;10.07;2.90;;;;;;;;;;5052505;28;19966;-58
2021/05/29 02:23:20;;;;;;;12.93;4.57;;;;;;;;;;5052525;28;20025;-58
2021/05/29 02:25:48;;;;;;;8.90;2.97;;;;;;;;;;5052245;28;20492;-58
2021/05/29 02:28:15;;;;;;;13.50;4.67;;;;;;;;;;5052500;28;20029;-59
2021/05/29 02:30:41;;;;;;;7.37;3.00;;;;;;;;;;5052272;28;20033;-58
2021/05/29 02:33:09;;;;;;;7.20;2.90;;;;;;;;;;5052297;28;20013;-58
2021/05/29 02:35:36;;;;;;;6.20;3.07;;;;;;;;;;5052370;28;20032;-59
2021/05/29 02:38:03;;;;;;;6.97;3.20;;;;;;;;;;5052282;28;20067;-57
2021/05/29 02:40:31;;;;;;;14.67;3.43;;;;;;;;;;5052230;28;20476;-57
2021/05/29 02:42:57;;;;;;;6.70;3.00;;;;;;;;;;5052337;28;20476;-57
2021/05/29 02:45:24;;;;;;;4.00;2.97;;;;;;;;;;5052257;28;20033;-58
2021/05/29 02:47:51;;;;;;;5.80;2.67;;;;;;;;;;5052333;28;20029;-56
2021/05/29 02:50:18;;;;;;;8.67;3.10;;;;;;;;;;5052055;28;20040;-56
2021/05/29 02:52:45;;;;;;;7.23;2.87;;;;;;;;;;5052458;28;20104;-57
2021/05/29 02:55:20;;;;;;;4.80;2.17;;;;;;;;;;5052240;28;20323;-58
2021/05/29 02:57:48;;;;;;;4.57;2.77;;;;;;;;;;5052150;28;20061;-58
2021/05/29 03:00:15;;;;;;;6.13;3.13;;;;;;;;;;5052002;28;20082;-57
2021/05/29 03:02:42;;;;;;;7.43;3.03;;;;;;;;;;5052149;28;20476;-58
2021/05/29 03:05:09;;;;;;;8.67;3.50;;;;;;;;;;5034148;28;20155;-59
2021/05/29 03:07:36;;;;;;;6.23;2.97;;;;;;;;;;5034316;28;20372;-59
2021/05/29 03:10:06;;;;;;;7.93;3.20;;;;;;;;;;5053130;28;20033;-59
2021/05/29 03:12:34;;;;;;;7.20;3.50;;;;;;;;;;5055891;28;20031;-59
2021/05/29 03:15:01;;;;;;;9.50;3.40;;;;;;;;;;5055549;28;20032;-59
2021/05/29 03:17:28;;;;;;;12.53;4.87;;;;;;;;;;5056042;28;20099;-58
2021/05/29 03:19:55;;;;;;;10.60;4.93;;;;;;;;;;5055459;28;20021;-59
2021/05/29 03:22:22;;;;;;;9.30;5.27;;;;;;;;;;5055475;28;20033;-59
2021/05/29 03:24:48;;;;;;;12.63;6.50;;;;;;;;;;5055383;28;20052;-59
2021/05/29 03:27:18;;;;;;;10.23;5.23;;;;;;;;;;5055510;28;20029;-59
2021/05/29 03:29:45;;;;;;;7.93;5.30;;;;;;;;;;5055217;28;20132;-58
2021/05/29 03:32:12;;;;;;;12.07;5.77;;;;;;;;;;5055398;28;20036;-59
2021/05/29 03:34:39;;;;;;;9.57;5.50;;;;;;;;;;5055268;28;20029;-57
2021/05/29 03:37:06;;;;;;;7.50;5.20;;;;;;;;;;5055267;28;20104;-58
2021/05/29 03:39:33;;;;;;;7.67;4.87;;;;;;;;;;5055267;28;20013;-58
2021/05/29 03:42:00;;;;;;;9.70;5.17;;;;;;;;;;5055156;28;20025;-59
2021/05/29 03:44:27;;;;;;;7.37;4.80;;;;;;;;;;5054909;28;20028;-57
2021/05/29 03:46:55;;;;;;;8.60;4.83;;;;;;;;;;5055022;28;20029;-58
2021/05/29 03:49:21;;;;;;;7.83;4.43;;;;;;;;;;5055071;28;20086;-58
2021/05/29 03:51:48;;;;;;;8.57;4.20;;;;;;;;;;5055034;28;20499;-58
2021/05/29 03:54:15;;;;;;;5.83;3.70;;;;;;;;;;5054901;28;20412;-58
2021/05/29 03:56:42;;;;;;;6.87;4.00;;;;;;;;;;5054789;28;20110;-58
2021/05/29 03:59:13;;;;;;;8.17;4.10;;;;;;;;;;5054717;28;20029;-58
2021/05/29 04:01:40;;;;;;;10.70;4.73;;;;;;;;;;5054945;28;20108;-58
2021/05/29 04:04:11;;;;;;;6.53;3.83;;;;;;;;;;5054741;28;20021;-58
2021/05/29 04:06:38;;;;;;;7.27;4.07;;;;;;;;;;5054523;28;20025;-58
2021/05/29 04:09:05;;;;;;;7.77;4.03;;;;;;;;;;5054599;28;20021;-57
2021/05/29 04:11:36;;;;;;;9.17;4.10;;;;;;;;;;5054666;28;20051;-58
2021/05/29 04:14:03;;;;;;;7.83;4.30;;;;;;;;;;5054502;28;20483;-58
2021/05/29 04:16:30;;;;;;;7.03;4.50;;;;;;;;;;5054858;28;20053;-58
2021/05/29 04:18:57;;;;;;;7.67;4.20;;;;;;;;;;5054400;28;20025;-58
2021/05/29 04:21:24;;;;;;;7.73;4.20;;;;;;;;;;5053883;28;20028;-58
2021/05/29 04:23:51;;;;;;;8.77;4.43;;;;;;;;;;5054366;28;20021;-58
2021/05/29 04:26:18;;;;;;;6.10;3.83;;;;;;;;;;5054186;28;20028;-58
2021/05/29 04:28:45;;;;;;;8.73;4.27;;;;;;;;;;5054284;28;20036;-58
2021/05/29 04:31:11;;;;;;;7.30;4.03;;;;;;;;;;5054251;28;20082;-58
2021/05/29 04:33:38;;;;;;;10.13;3.60;;;;;;;;;;5054062;28;20032;-58
2021/05/29 04:36:05;;;;;;;8.37;3.90;;;;;;;;;;5054082;28;20108;-57
2021/05/29 04:38:32;;;;;;;5.30;3.40;;;;;;;;;;5054177;28;20471;-58
2021/05/29 04:40:59;;;;;;;5.07;2.53;;;;;;;;;;5053952;28;20384;-57
2021/05/29 04:43:26;;;;;;;4.43;2.60;;;;;;;;;;5053819;28;20029;-58
2021/05/29 04:45:52;;;;;;;5.13;2.13;;;;;;;;;;5053938;28;20040;-58
2021/05/29 04:48:19;;;;;;;4.90;2.50;;;;;;;;;;5036026;28;20491;-57
2021/05/29 04:53:31;;;;;;;5.03;2.72;;;;;;;;;;5054115;28;20032;-58
2021/05/29 04:56:01;;;;;;;5.87;2.60;;;;;;;;;;5053616;28;20028;-58
2021/05/29 04:58:27;;;;;;;3.70;2.57;;;;;;;;;;5053731;28;20095;-57
2021/05/29 05:00:54;;;;;;;6.23;3.83;;;;;;;;;;5053663;28;20086;-57
2021/05/29 05:03:21;;;;;;;6.00;2.93;;;;;;;;;;5053630;28;20044;-57
2021/05/29 05:05:48;;;;;;;4.03;2.23;;;;;;;;;;5053416;28;20398;-57
2021/05/29 05:08:15;;;;;;;4.37;2.93;;;;;;;;;;5053458;28;20031;-57
2021/05/29 05:10:42;;;;;;;4.07;2.50;;;;;;;;;;5053483;28;20032;-58
2021/05/29 05:13:09;;;;;;;5.23;2.90;;;;;;;;;;5053413;28;20379;-58
2021/05/29 05:15:36;;;;;;;4.40;2.70;;;;;;;;;;5053324;28;20040;-58
2021/05/29 05:18:06;;;;;;;4.07;2.57;;;;;;;;;;5053753;28;20086;-58
2021/05/29 05:20:33;;;;;;;4.40;2.30;;;;;;;;;;5053277;28;20025;-58
2021/05/29 05:23:00;;;;;;;4.10;2.70;;;;;;;;;;5053228;28;20021;-58
2021/05/29 05:25:28;;;;;;;5.67;2.80;;;;;;;;;;5053231;28;20017;-57
2021/05/29 05:27:55;;;;;;;5.20;2.87;;;;;;;;;;5053391;28;20100;-57
2021/05/29 05:30:22;;;;;;;6.27;2.60;;;;;;;;;;5052971;28;20402;-57
2021/05/29 05:32:49;;;;;;;6.43;2.77;;;;;;;;;;5052907;28;20073;-58
2021/05/29 05:35:28;;;;;;;5.43;2.70;;;;;;;;;;5052518;28;20392;-58
2021/05/29 05:37:55;;;;;;;9.23;3.00;;;;;;;;;;5052919;28;20063;-58
2021/05/29 05:40:25;;;;;;;5.23;3.10;;;;;;;;;;5052997;28;20391;-57
2021/05/29 05:42:54;;;;;;;6.17;2.60;;;;;;;;;;5052495;28;20395;-58
2021/05/29 05:45:21;;;;;;;6.43;2.80;;;;;;;;;;5052524;28;20028;-58
2021/05/29 05:47:48;;;;;;;5.47;3.00;;;;;;;;;;5052949;28;20031;-58
2021/05/29 05:50:15;;;;;;;6.00;2.80;;;;;;;;;;5052903;28;20384;-58
2021/05/29 05:52:42;;;;;;;8.67;2.70;;;;;;;;;;5052745;28;20033;-58
2021/05/29 05:55:09;;;;;;;5.50;2.93;;;;;;;;;;5053029;28;20411;-58
2021/05/29 05:57:36;;;;;;;4.03;2.47;;;;;;;;;;5052612;28;20033;-58
2021/05/29 06:00:05;;;;;;;3.50;2.40;;;;;;;;;;5052691;28;20024;-58
2021/05/29 06:02:32;;;;;;;5.40;3.23;;;;;;;;;;5051993;28;20039;-58
2021/05/29 06:04:59;;;;;;;7.80;3.20;;;;;;;;;;5052660;28;20063;-57
2021/05/29 06:07:26;;;;;;;4.87;2.77;;;;;;;;;;5052635;28;20046;-58
2021/05/29 06:09:53;;;;;;;8.33;2.87;;;;;;;;;;5052551;28;20032;-58
2021/05/29 06:12:20;;;;;;;4.80;2.80;;;;;;;;;;5052490;28;20021;-58
2021/05/29 06:20:18;;;;;;;4.82;2.45;;;;;;;;;;5052992;28;20036;-58
2021/05/29 06:22:45;;;;;;;5.30;3.00;;;;;;;;;;5052825;28;20375;-57
2021/05/29 06:25:13;;;;;;;7.77;3.10;;;;;;;;;;5052520;28;20100;-58
2021/05/29 06:27:40;;;;;;;6.97;2.67;;;;;;;;;;5052513;28;20075;-58
2021/05/29 06:30:07;;;;;;;4.57;2.53;;;;;;;;;;5052391;28;20606;-58
2021/05/29 06:32:36;;;;;;;4.47;2.70;;;;;;;;;;5052329;28;20036;-58
2021/05/29 06:35:03;;;;;;;4.53;2.87;;;;;;;;;;5052328;28;20056;-57
2021/05/29 06:37:30;;;;;;;5.13;3.10;;;;;;;;;;5052400;28;20028;-58
2021/05/29 06:39:57;;;;;;;3.73;2.50;;;;;;;;;;5052428;28;20083;-58
2021/05/29 06:42:24;;;;;;;5.57;2.73;;;;;;;;;;5052299;28;20017;-58
2021/05/29 06:44:51;;;;;;;5.30;3.03;;;;;;;;;;5053305;28;20029;-58
2021/05/29 06:47:17;;;;;;;3.60;2.43;;;;;;;;;;5056100;28;20031;-58
2021/05/29 06:49:44;;;;;;;6.67;2.27;;;;;;;;;;5055980;28;20029;-58
2021/05/29 06:52:14;;;;;;;6.57;2.93;;;;;;;;;;5056075;28;20029;-58
2021/05/29 06:59:53;;;;;;;4.88;3.15;;;;;;;;;;5056340;28;20080;-58
2021/05/29 07:02:20;;;;;;;6.77;2.63;;;;;;;;;;5055828;28;20109;-58
2021/05/29 07:04:47;;;;;;;5.50;2.90;;;;;;;;;;5055793;28;20025;-58
2021/05/29 07:07:14;;;;;;;7.73;2.70;;;;;;;;;;5055650;28;20028;-57
2021/05/29 07:09:40;;;;;;;4.10;2.23;;;;;;;;;;5055758;28;20112;-58
2021/05/29 07:12:08;;;;;;;4.63;2.20;;;;;;;;;;5055660;28;20021;-58
2021/05/29 07:14:34;;;;;;;5.47;2.33;;;;;;;;;;5055722;28;20033;-58
2021/05/29 07:17:03;;;;;;;5.17;2.40;;;;;;;;;;5056114;28;20076;-58
2021/05/29 07:19:30;;;;;;;4.50;2.30;;;;;;;;;;5055957;28;20407;-57
2021/05/29 07:21:56;;;;;;;3.87;2.30;;;;;;;;;;5055450;28;20442;-58
2021/05/29 07:24:24;;;;;;;3.37;2.10;;;;;;;;;;5055337;28;20029;-58
2021/05/29 07:26:51;;;;;;;7.13;2.30;;;;;;;;;;5055542;28;20086;-57
2021/05/29 07:29:18;;;;;;;5.17;2.07;;;;;;;;;;5055527;28;20392;-58
2021/05/29 07:31:45;;;;;;;5.03;1.80;;;;;;;;;;5055420;28;20067;-57
2021/05/29 07:34:12;;;;;;;2.80;1.80;;;;;;;;;;5055191;28;20021;-57
2021/05/29 07:36:39;;;;;;;4.07;1.87;;;;;;;;;;5055320;28;20468;-58
2021/05/29 07:39:06;;;;;;;4.57;2.37;;;;;;;;;;5055088;28;20029;-58
2021/05/29 07:41:35;;;;;;;3.20;1.63;;;;;;;;;;5055054;28;20032;-57
2021/05/29 07:44:02;;;;;;;4.17;1.77;;;;;;;;;;5055018;28;20082;-58
2021/05/29 07:46:30;;;;;;;4.50;1.70;;;;;;;;;;5055004;28;20039;-58
2021/05/29 07:48:57;;;;;;;2.80;1.70;;;;;;;;;;5054868;28;20491;-58
2021/05/29 07:51:24;;;;;;;4.83;1.70;;;;;;;;;;5054825;28;20095;-58
2021/05/29 07:53:50;;;;;;;3.30;1.80;;;;;;;;;;5054989;28;20021;-58
2021/05/29 07:56:18;;;;;;;3.13;1.73;;;;;;;;;;5054021;28;20056;-58
2021/05/29 07:58:47;;;;;;;3.23;1.77;;;;;;;;;;5054792;28;20025;-58
2021/05/29 08:01:15;;;;;;;3.73;1.53;;;;;;;;;;5055226;28;20013;-57
2021/05/29 08:03:42;;;;;;;2.57;1.40;;;;;;;;;;5054778;28;20029;-58
2021/05/29 08:06:21;;;;;;;4.60;1.50;;;;;;;;;;5054526;28;20487;-58
2021/05/29 08:08:47;;;;;;;2.93;1.40;;;;;;;;;;5054616;28;20028;-57
2021/05/29 08:11:21;;;;;;;4.07;1.30;;;;;;;;;;5054554;28;20116;-57
2021/05/29 08:13:48;;;;;;;5.47;1.37;;;;;;;;;;5036971;28;20372;-57
2021/05/29 08:16:16;;;;;;;12.33;2.83;;;;;;;;;;5055003;28;20472;-58
2021/05/29 08:18:42;;;;;;;2.63;1.17;;;;;;;;;;5054512;28;20053;-58
2021/05/29 08:21:09;;;;;;;4.67;1.20;;;;;;;;;;5054606;28;20025;-58
2021/05/29 08:23:37;;;;;;;4.60;1.30;;;;;;;;;;5054380;28;20115;-58
2021/05/29 08:26:03;;;;;;;3.97;1.30;;;;;;;;;;5054299;28;20029;-57
2021/05/29 08:28:30;;;;;;;5.63;1.40;;;;;;;;;;5054549;28;20035;-57
2021/05/29 08:30:57;;;;;;;3.63;2.03;;;;;;;;;;5054406;28;20037;-58
2021/05/29 08:33:24;;;;;;;1.83;1.13;;;;;;;;;;5054117;28;20033;-58
2021/05/29 08:35:51;;;;;;;2.33;1.40;;;;;;;;;;5054149;28;20043;-57
2021/05/29 08:38:18;;;;;;;2.83;1.40;;;;;;;;;;5054048;28;20025;-58
2021/05/29 08:40:45;;;;;;;3.27;1.57;;;;;;;;;;5054031;28;20029;-58
2021/05/29 08:43:12;;;;;;;5.13;1.50;;;;;;;;;;5054070;28;20033;-57
2021/05/29 08:45:39;;;;;;;2.57;1.50;;;;;;;;;;5054108;28;20020;-57
2021/05/29 08:48:06;;;;;;;3.30;1.10;;;;;;;;;;5053869;28;20025;-57
2021/05/29 08:50:33;;;;;;;2.63;1.37;;;;;;;;;;5053856;28;20032;-57
2021/05/29 08:53:00;;;;;;;2.50;1.27;;;;;;;;;;5054074;28;20096;-57
2021/05/29 08:55:27;;;;;;;1.90;1.10;;;;;;;;;;5053832;28;20025;-58
2021/05/29 08:57:54;;;;;;;6.10;1.53;;;;;;;;;;5053728;28;20035;-57
2021/05/29 09:00:24;;;;;;;4.80;1.83;;;;;;;;;;5053836;28;20021;-58
2021/05/29 09:02:57;;;;;;;2.97;1.43;;;;;;;;;;5053820;28;20139;-57
2021/05/29 09:05:33;;;;;;;2.97;1.30;;;;;;;;;;5053742;28;20096;-57
2021/05/29 09:08:27;;;;;;;2.43;1.10;;;;;;;;;;5053486;28;20113;-58
2021/05/29 09:10:56;;;;;;;2.57;1.27;;;;;;;;;;5049919;28;20079;-58
2021/05/29 09:13:30;;;;;;;2.37;1.40;;;;;;;;;;5053484;28;20017;-57
2021/05/29 09:15:58;;;;;;;3.97;1.38;;;;;;;;;;5053483;28;20036;-58
2021/05/29 09:18:31;;;;;;;3.57;1.53;;;;;;;;;;5053881;28;20132;-58
2021/05/29 09:21:16;;;;;;;3.67;1.40;;;;;;;;;;5053388;28;20025;-57
2021/05/29 09:23:50;;;;;;;3.47;1.60;;;;;;;;;;5053350;28;20162;-57
2021/05/29 09:26:17;;;;;;;2.57;1.40;;;;;;;;;;5053189;28;20065;-57
2021/05/29 09:28:44;;;;;;;5.50;2.03;;;;;;;;;;5053281;28;20029;-58
2021/05/29 09:31:15;;;;;;;3.30;2.20;;;;;;;;;;5053046;28;20116;-57
2021/05/29 09:33:46;;;;;;;9.83;2.57;;;;;;;;;;5053070;28;20029;-58
2021/05/29 09:36:14;;;;;;;6.07;2.10;;;;;;;;;;5052984;28;20032;-58
2021/05/29 09:38:43;;;;;;;6.60;2.40;;;;;;;;;;5053086;28;20017;-57
2021/05/29 09:41:22;;;;;;;2.87;2.10;;;;;;;;;;5052935;28;20021;-58
2021/05/29 09:43:56;;;;;;;5.20;2.53;;;;;;;;;;5052796;28;20020;-57
2021/05/29 09:46:23;;;;;;;5.93;2.97;;;;;;;;;;5052937;28;20021;-57
2021/05/29 09:48:57;;;;;;;5.90;2.30;;;;;;;;;;5052790;28;20025;-57
2021/05/29 09:51:25;;;;;;;4.18;2.67;;;;;;;;;;5052772;28;20040;-58
2021/05/29 09:53:53;;;;;;;5.27;2.67;;;;;;;;;;5052761;28;20021;-58
2021/05/29 09:56:24;;;;;;;6.97;3.03;;;;;;;;;;5052684;28;20055;-58
2021/05/29 09:58:52;;;;;;;5.63;3.03;;;;;;;;;;5052738;28;20036;-58
2021/05/29 10:01:37;;;;;;;5.67;2.77;;;;;;;;;;5052746;28;20028;-58
2021/05/29 10:04:04;;;;;;;;;;;;;;;;;;5053075;28;20388;-58
2021/05/29 10:06:31;;;;;;;5.80;2.77;;;;;;;;;;5052876;28;19905;-57
2021/05/29 10:08:57;;;;;;;7.63;2.87;;;;;;;;;;5052741;28;20097;-57
2021/05/29 10:11:24;;;;;;;9.80;2.60;;;;;;;;;;5052492;28;20065;-58
2021/05/29 10:13:51;;;;;;;4.27;2.90;;;;;;;;;;5052581;28;20017;-57
2021/05/29 10:16:18;;;;;;;7.57;3.43;;;;;;;;;;5053203;28;20104;-58
2021/05/29 10:18:49;;;;;;;6.90;2.80;;;;;;;;;;5013049;28;20052;-57
2021/05/29 10:21:17;;;;;;;4.87;2.40;;;;;;;;;;5016455;28;20029;-57
2021/05/29 10:23:46;;;;;;;4.27;2.57;;;;;;;;;;5017551;28;20028;-58
2021/05/29 10:26:14;;;;;;;5.20;2.30;;;;;;;;;;5016833;28;20389;-58
2021/05/29 10:28:41;;;;;;;6.30;2.30;;;;;;;;;;5008852;28;20389;-57
2021/05/29 10:31:08;;;;;;;3.83;2.27;;;;;;;;;;5016677;28;20113;-58
2021/05/29 10:33:39;;;;;;;8.60;1.97;;;;;;;;;;5016675;28;20018;-58
2021/05/29 10:36:07;;;;;;;5.73;2.60;;;;;;;;;;5016529;28;20030;-57
2021/05/29 10:38:44;;;;;;;5.83;3.20;;;;;;;;;;5016485;28;20018;-58
2021/05/29 10:41:11;;;;;;;6.20;2.90;;;;;;;;;;5016496;28;20033;-58
2021/05/29 10:43:38;;;;;;;4.97;2.97;;;;;;;;;;5016501;28;20033;-57
2021/05/29 10:46:07;;;;;;;5.40;2.53;;;;;;;;;;5015285;28;20030;-58
2021/05/29 10:48:47;;;;;;;4.73;2.53;;;;;;;;;;5016333;28;20030;-57
2021/05/29 10:51:14;;;;;;;5.70;2.87;;;;;;;;;;5016286;28;20118;-57
2021/05/29 10:53:41;;;;;;;2.80;1.97;;;;;;;;;;5008194;28;20048;-58
2021/05/29 10:56:17;;;;;;;4.37;2.00;;;;;;;;;;5016336;28;20025;-57
2021/05/29 10:58:56;;;;;;;4.33;1.73;;;;;;;;;;5016912;28;20025;-58
2021/05/29 11:01:24;;;;;;;7.83;3.30;;;;;;;;;;5016296;28;20478;-58
2021/05/29 11:04:11;;;;;;;6.63;2.30;;;;;;;;;;5016234;28;20045;-57
2021/05/29 11:06:38;;;;;;;5.60;2.03;;;;;;;;;;5002861;28;20057;-57
2021/05/29 11:09:06;;;;;;;3.17;1.80;;;;;;;;;;5016354;28;20309;-57
2021/05/29 11:11:46;;;;;;;4.50;1.80;;;;;;;;;;5015973;28;20157;-57
2021/05/29 11:14:16;;;;;;;3.63;2.23;;;;;;;;;;5015920;28;20026;-57
2021/05/29 11:16:50;;;;;;;5.60;2.13;;;;;;;;;;5020256;28;20046;-58
2021/05/29 11:19:19;;;;;;;3.67;1.90;;;;;;;;;;5036037;28;20116;-58
2021/05/29 11:22:17;;;;;;;6.17;2.30;;;;;;;;;;5055511;28;20025;-57
2021/05/29 11:24:53;;;;;;;3.37;2.00;;;;;;;;;;5055496;28;20033;-57
2021/05/29 11:27:21;;;;;;;5.13;2.20;;;;;;;;;;5055424;28;20031;-58
2021/05/29 11:29:49;;;;;;;5.80;2.33;;;;;;;;;;5055293;28;20037;-58
2021/05/29 11:32:17;;;;;;;6.47;1.60;;;;;;;;;;5053969;28;20476;-57
2021/05/29 11:34:44;;;;;;;5.33;2.20;;;;;;;;;;5055269;28;20029;-57
2021/05/29 11:37:15;;;;;;;5.37;2.23;;;;;;;;;;5055496;28;20029;-57
2021/05/29 11:39:54;;;;;;;8.37;1.87;;;;;;;;;;5055097;28;20104;-57
2021/05/29 11:42:21;;;;;;;7.57;2.03;;;;;;;;;;5055057;28;20436;-57
2021/05/29 11:44:49;;;;;;;4.17;2.17;;;;;;;;;;5054991;28;20086;-57
2021/05/29 11:47:17;;;;;;;3.87;2.33;;;;;;;;;;5055195;28;20559;-57
2021/05/29 11:49:44;;;;;;;4.23;2.40;;;;;;;;;;5054768;28;20041;-58
2021/05/29 11:52:12;;;;;;;4.27;2.30;;;;;;;;;;5055176;28;20028;-57
2021/05/29 11:54:40;;;;;;;3.30;2.20;;;;;;;;;;5054989;28;20020;-57
2021/05/29 11:57:08;;;;;;;3.80;2.23;;;;;;;;;;5055597;28;20063;-58
2021/05/29 11:59:35;;;;;;;3.83;1.77;;;;;;;;;;5054822;28;20029;-57
2021/05/29 12:02:04;;;;;;;5.30;2.40;;;;;;;;;;5054708;28;20539;-57
2021/05/29 12:04:32;;;;;;;3.80;2.30;;;;;;;;;;5054777;28;20021;-57
2021/05/29 12:07:02;;;;;;;11.20;3.30;;;;;;;;;;5054746;28;20104;-57
2021/05/29 12:09:34;;;;;;;9.80;2.20;;;;;;;;;;5054733;28;20028;-57
2021/05/29 12:12:21;;;;;;;4.30;2.00;;;;;;;;;;5054602;28;20052;-57
2021/05/29 12:14:49;;;;;;;3.50;2.30;;;;;;;;;;5054510;28;20029;-58
2021/05/29 12:17:17;;;;;;;5.87;2.40;;;;;;;;;;5048879;28;20041;-58
2021/05/29 12:19:45;;;;;;;5.70;2.50;;;;;;;;;;5034657;28;20025;-57
2021/05/29 12:22:14;;;;;;;6.93;2.93;;;;;;;;;;5034515;28;20033;-57
2021/05/29 12:24:43;;;;;;;5.70;2.90;;;;;;;;;;5034489;28;20049;-57
2021/05/29 12:27:12;;;;;;;5.50;3.13;;;;;;;;;;5034374;28;20084;-57
2021/05/29 12:29:40;;;;;;;7.03;3.43;;;;;;;;;;5034079;28;20107;-57
2021/05/29 12:32:07;;;;;;;5.60;2.87;;;;;;;;;;5034639;28;20018;-57
2021/05/29 12:34:35;;;;;;;4.20;2.70;;;;;;;;;;5034153;28;20029;-57
2021/05/29 12:37:11;;;;;;;12.70;7.27;;;;;;;;;;5054159;28;20027;-57
2021/05/29 12:39:42;;;;;;;15.87;10.67;;;;;;;;;;5054021;28;20036;-57
2021/05/29 12:42:25;;;;;;;12.43;7.07;;;;;;;;;;5053608;28;20039;-57
2021/05/29 12:44:53;;;;;;;8.23;4.57;;;;;;;;;;5053854;28;20039;-57
2021/05/29 12:47:24;;;;;;;7.87;4.17;;;;;;;;;;5053807;28;20488;-57
2021/05/29 12:49:54;;;;;;;8.83;4.53;;;;;;;;;;5053888;28;20122;-57
2021/05/29 12:52:27;;;;;;;6.03;3.67;;;;;;;;;;5053797;28;20021;-57
2021/05/29 12:54:55;;;;;;;5.27;3.83;;;;;;;;;;5053744;28;20112;-58
2021/05/29 12:57:23;;;;;;;9.63;4.63;;;;;;;;;;5053703;28;20033;-58
2021/05/29 12:59:51;;;;;;;6.70;3.40;;;;;;;;;;5053846;28;20021;-57
2021/05/29 13:08:14;;;;;;;6.15;2.90;;;;;;;;;;5053656;28;20090;-58
2021/05/29 13:10:47;;;;;;;6.07;3.93;;;;;;;;;;5053400;28;20504;-58
2021/05/29 13:13:14;;;;;;;11.07;4.50;;;;;;;;;;5053398;28;20024;-58
2021/05/29 13:15:41;;;;;;;8.43;4.47;;;;;;;;;;5053463;28;20025;-58
2021/05/29 13:18:12;;;;;;;9.00;4.53;;;;;;;;;;5041398;28;20053;-58
2021/05/29 13:20:40;;;;;;;8.70;4.97;;;;;;;;;;5033405;28;20388;-58
2021/05/29 13:23:08;;;;;;;9.23;5.23;;;;;;;;;;5053264;28;20029;-58
2021/05/29 13:25:48;;;;;;;7.53;4.53;;;;;;;;;;5053187;28;20051;-58
2021/05/29 13:28:19;;;;;;;8.17;4.13;;;;;;;;;;5053104;28;20033;-58
2021/05/29 13:30:46;;;;;;;6.83;4.80;;;;;;;;;;5053160;28;20033;-58
2021/05/29 13:33:13;;;;;;;6.87;4.10;;;;;;;;;;5053167;28;20021;-57
2021/05/29 13:35:41;;;;;;;6.87;4.57;;;;;;;;;;5053162;28;20139;-57
2021/05/29 13:38:08;;;;;;;9.90;5.00;;;;;;;;;;5052981;28;20036;-57
2021/05/29 13:40:35;;;;;;;9.63;4.90;;;;;;;;;;5052839;28;20052;-57
2021/05/29 13:43:02;;;;;;;12.07;4.90;;;;;;;;;;5052849;28;20051;-58
2021/05/29 13:45:31;;;;;;;7.50;4.20;;;;;;;;;;5053029;28;20061;-58
2021/05/29 13:47:58;;;;;;;7.70;4.17;;;;;;;;;;5052869;28;20029;-58
2021/05/29 13:50:25;;;;;;;6.07;4.40;;;;;;;;;;5052795;28;20029;-58
2021/05/29 13:52:54;;;;;;;5.87;3.97;;;;;;;;;;5052947;28;20036;-58
2021/05/29 13:55:21;;;;;;;7.23;4.00;;;;;;;;;;5052202;28;20025;-58
2021/05/29 13:57:48;;;;;;;6.73;4.17;;;;;;;;;;5052677;28;20040;-58
2021/05/29 14:00:16;;;;;;;6.27;3.93;;;;;;;;;;5052649;28;20538;-58
2021/05/29 14:02:43;;;;;;;5.87;4.20;;;;;;;;;;5052481;28;20197;-58
2021/05/29 14:05:11;;;;;;;6.10;3.73;;;;;;;;;;5052698;28;20029;-58
2021/05/29 14:07:38;;;;;;;6.60;3.97;;;;;;;;;;5052614;28;20053;-58
2021/05/29 14:10:06;;;;;;;12.87;4.40;;;;;;;;;;5052662;28;20033;-58
2021/05/29 14:12:33;;;;;;;9.00;4.20;;;;;;;;;;5052487;28;20017;-58
2021/05/29 14:14:59;;;;;;;7.63;4.40;;;;;;;;;;5052605;28;20104;-57
2021/05/29 14:17:26;;;;;;;6.00;3.90;;;;;;;;;;5047608;28;20049;-58
2021/05/29 14:19:53;;;;;;;7.63;3.63;;;;;;;;;;5032941;28;20029;-57
2021/05/29 14:22:20;;;;;;;6.30;4.00;;;;;;;;;;5032623;28;20026;-57
2021/05/29 14:24:47;;;;;;;9.77;5.00;;;;;;;;;;5032690;28;20498;-57
2021/05/29 14:27:13;;;;;;;6.97;4.40;;;;;;;;;;5032623;28;20025;-58
2021/05/29 14:29:40;;;;;;;6.73;4.23;;;;;;;;;;5032534;28;20060;-58
2021/05/29 14:32:07;;;;;;;5.33;3.83;;;;;;;;;;5032518;28;20076;-58
2021/05/29 14:34:34;;;;;;;6.80;3.87;;;;;;;;;;5032530;28;20017;-58
2021/05/29 14:37:02;;;;;;;7.33;4.10;;;;;;;;;;5032544;28;20083;-58
2021/05/29 14:39:29;;;;;;;9.07;3.63;;;;;;;;;;5032526;28;20023;-57
2021/05/29 14:41:56;;;;;;;5.13;3.43;;;;;;;;;;5032360;28;20029;-57
2021/05/29 14:44:23;;;;;;;8.13;4.00;;;;;;;;;;5015013;28;20476;-58
2021/05/29 14:46:50;;;;;;;6.50;4.00;;;;;;;;;;5032438;28;20173;-58
2021/05/29 14:49:18;;;;;;;5.40;3.73;;;;;;;;;;5052080;28;20028;-58
2021/05/29 14:51:45;;;;;;;8.70;4.03;;;;;;;;;;5052128;28;20041;-58
2021/05/29 14:54:12;;;;;;;7.30;3.63;;;;;;;;;;5052243;28;20036;-58
2021/05/29 14:56:42;;;;;;;5.77;3.40;;;;;;;;;;5052290;28;20079;-58
2021/05/29 14:59:08;;;;;;;8.93;4.07;;;;;;;;;;5052339;28;20029;-58
2021/05/29 15:01:39;;;;;;;7.47;3.93;;;;;;;;;;5052044;28;20037;-58
2021/05/29 15:04:07;;;;;;;7.10;4.80;;;;;;;;;;5052168;28;20025;-58
2021/05/29 15:06:37;;;;;;;14.17;8.63;;;;;;;;;;5054110;28;20036;-58
2021/05/29 15:09:04;;;;;;;6.70;4.80;;;;;;;;;;5055932;28;20117;-58
2021/05/29 15:11:31;;;;;;;25.47;14.40;;;;;;;;;;5055671;28;20120;-58